Time;durP1;ratioP1;P1;durP2;ratioP2;P2;SDS_P1;SDS_P2;PMS_P1;PMS_P2;Temp;Humidity;BMP_temperature;BMP_pressure;BME280_temperature;BME280_humidity;BME280_pressure;Samples;Min_cycle;Max_cycle;Signal;HPM_P1;HPM_P2
2022/10/12 00:00:50;;;;;;;7.18;2.90;;;;;;;;;;5048748;28;20057;-76
2022/10/12 00:03:17;;;;;;;7.75;2.80;;;;;;;;;;5049119;28;20027;-76
2022/10/12 00:05:42;;;;;;;6.95;3.25;;;;;;;;;;5049434;28;20035;-76
2022/10/12 00:08:07;;;;;;;9.95;3.30;;;;;;;;;;5049010;28;20021;-75
2022/10/12 00:10:33;;;;;;;8.55;3.25;;;;;;;;;;5048480;28;20071;-76
2022/10/12 00:12:59;;;;;;;9.32;3.05;;;;;;;;;;5048732;28;20082;-76
2022/10/12 00:15:25;;;;;;;8.15;2.97;;;;;;;;;;5048991;28;20033;-76
2022/10/12 00:17:52;;;;;;;8.20;3.28;;;;;;;;;;5049099;28;20536;-77
2022/10/12 00:20:17;;;;;;;9.15;3.25;;;;;;;;;;5048922;28;20036;-76
2022/10/12 00:22:43;;;;;;;6.25;3.10;;;;;;;;;;5048946;28;20044;-76
2022/10/12 00:25:08;;;;;;;10.68;3.25;;;;;;;;;;5048924;28;20039;-75
2022/10/12 00:27:33;;;;;;;4.80;3.00;;;;;;;;;;5048823;28;20490;-76
2022/10/12 00:29:59;;;;;;;8.68;3.15;;;;;;;;;;5049089;28;20100;-75
2022/10/12 00:32:24;;;;;;;11.30;3.00;;;;;;;;;;5048857;28;20496;-76
2022/10/12 00:34:49;;;;;;;8.07;2.88;;;;;;;;;;5047072;28;20021;-75
2022/10/12 00:37:14;;;;;;;6.50;2.88;;;;;;;;;;5048943;28;20029;-75
2022/10/12 00:39:40;;;;;;;10.35;3.40;;;;;;;;;;5047404;28;20029;-76
2022/10/12 00:42:05;;;;;;;4.93;2.70;;;;;;;;;;5048640;28;20083;-76
2022/10/12 00:44:36;;;;;;;12.63;3.08;;;;;;;;;;5047535;28;20079;-77
2022/10/12 00:47:06;;;;;;;8.65;2.85;;;;;;;;;;5047022;28;20410;-77
2022/10/12 00:49:32;;;;;;;9.10;3.10;;;;;;;;;;5048860;28;20025;-75
2022/10/12 00:52:02;;;;;;;9.63;3.28;;;;;;;;;;5048542;28;20036;-76
2022/10/12 00:54:31;;;;;;;7.78;2.85;;;;;;;;;;5048734;28;20029;-76
2022/10/12 00:56:58;;;;;;;7.47;3.10;;;;;;;;;;5048868;28;20063;-76
2022/10/12 00:59:32;;;;;;;8.60;3.33;;;;;;;;;;5048310;28;20413;-77
2022/10/12 01:01:57;;;;;;;;;;;;;;;;;;5048960;28;20037;-76
2022/10/12 01:04:23;;;;;;;10.63;3.10;;;;;;;;;;5048445;28;19919;-76
2022/10/12 01:06:51;;;;;;;9.88;3.17;;;;;;;;;;5048355;28;20111;-76
2022/10/12 01:09:17;;;;;;;7.93;3.33;;;;;;;;;;5048780;28;20025;-76
2022/10/12 01:11:43;;;;;;;11.60;3.42;;;;;;;;;;5048069;28;20037;-76
2022/10/12 01:14:08;;;;;;;10.23;3.28;;;;;;;;;;5048758;28;20036;-77
2022/10/12 01:16:53;;;;;;;10.60;3.97;;;;;;;;;;5048623;28;20036;-76
2022/10/12 01:19:34;;;;;;;8.68;3.00;;;;;;;;;;5047216;28;20031;-75
2022/10/12 01:22:06;;;;;;;8.35;3.15;;;;;;;;;;5049680;28;20094;-76
2022/10/12 01:25:00;;;;;;;6.90;3.13;;;;;;;;;;5052525;28;20452;-76
2022/10/12 01:27:32;;;;;;;7.63;3.20;;;;;;;;;;5051294;28;20056;-74
2022/10/12 01:30:21;;;;;;;9.35;3.35;;;;;;;;;;5052020;28;20029;-77
2022/10/12 01:32:51;;;;;;;9.43;3.25;;;;;;;;;;5051760;28;20541;-76
2022/10/12 01:35:26;;;;;;;8.52;3.28;;;;;;;;;;5051580;28;20080;-76
2022/10/12 01:38:18;;;;;;;13.18;3.50;;;;;;;;;;5051704;28;20027;-76
2022/10/12 01:40:58;;;;;;;13.77;3.38;;;;;;;;;;5051638;28;20142;-76
2022/10/12 01:43:36;;;;;;;10.63;3.67;;;;;;;;;;5051951;28;20029;-76
2022/10/12 01:46:25;;;;;;;8.95;3.35;;;;;;;;;;5051623;28;20116;-77
2022/10/12 01:48:53;;;;;;;10.88;3.42;;;;;;;;;;5040791;28;20589;-76
2022/10/12 01:51:44;;;;;;;6.85;3.10;;;;;;;;;;5052166;28;20027;-77
2022/10/12 01:54:21;;;;;;;9.43;3.70;;;;;;;;;;5055634;28;20040;-77
2022/10/12 01:56:51;;;;;;;8.15;3.38;;;;;;;;;;5053719;28;20363;-77
2022/10/12 01:59:27;;;;;;;8.68;3.35;;;;;;;;;;5055323;28;20040;-77
2022/10/12 02:02:23;;;;;;;8.05;3.42;;;;;;;;;;5055235;28;20033;-77
2022/10/12 02:05:06;;;;;;;9.00;3.40;;;;;;;;;;5055079;28;20108;-77
2022/10/12 02:07:41;;;;;;;7.32;3.70;;;;;;;;;;5054999;28;20111;-77
2022/10/12 02:10:13;;;;;;;10.73;3.35;;;;;;;;;;5054809;28;20545;-76
2022/10/12 02:12:42;;;;;;;9.23;3.35;;;;;;;;;;5054710;28;20103;-76
2022/10/12 02:15:11;;;;;;;11.82;3.55;;;;;;;;;;5054624;28;20028;-76
2022/10/12 02:17:38;;;;;;;7.07;3.50;;;;;;;;;;5054651;28;20021;-76
2022/10/12 02:20:05;;;;;;;12.85;3.25;;;;;;;;;;5054631;28;20029;-76
2022/10/12 02:22:35;;;;;;;10.52;3.80;;;;;;;;;;5054683;28;20497;-76
2022/10/12 02:25:07;;;;;;;7.38;3.60;;;;;;;;;;5053162;28;20482;-76
2022/10/12 02:27:37;;;;;;;6.50;3.38;;;;;;;;;;5053083;28;20356;-77
2022/10/12 02:30:03;;;;;;;13.15;3.78;;;;;;;;;;5054374;28;20021;-76
2022/10/12 02:32:36;;;;;;;7.85;3.58;;;;;;;;;;5054192;28;20074;-76
2022/10/12 02:35:07;;;;;;;9.85;3.60;;;;;;;;;;5053499;28;20029;-76
2022/10/12 02:37:43;;;;;;;8.18;3.47;;;;;;;;;;5054306;28;20103;-76
2022/10/12 02:40:27;;;;;;;9.98;3.35;;;;;;;;;;5053955;28;20104;-76
2022/10/12 02:42:58;;;;;;;6.90;3.10;;;;;;;;;;5054140;28;20398;-76
2022/10/12 02:45:24;;;;;;;8.02;3.35;;;;;;;;;;5054031;28;20115;-76
2022/10/12 02:47:53;;;;;;;9.95;3.97;;;;;;;;;;5054327;28;20029;-76
2022/10/12 02:50:21;;;;;;;9.98;4.03;;;;;;;;;;5054049;28;20020;-76
2022/10/12 02:52:48;;;;;;;13.45;3.70;;;;;;;;;;5054233;28;20123;-76
2022/10/12 02:55:14;;;;;;;7.82;3.88;;;;;;;;;;5052759;28;20362;-77
2022/10/12 02:57:39;;;;;;;16.58;4.00;;;;;;;;;;5052572;28;20017;-75
2022/10/12 03:00:05;;;;;;;8.95;3.38;;;;;;;;;;5052315;28;20105;-75
2022/10/12 03:02:30;;;;;;;10.55;3.35;;;;;;;;;;5053769;28;20075;-75
2022/10/12 03:04:55;;;;;;;8.05;3.25;;;;;;;;;;5054157;28;20031;-76
2022/10/12 03:07:21;;;;;;;10.20;3.40;;;;;;;;;;5053484;28;20057;-76
2022/10/12 03:09:46;;;;;;;7.75;3.17;;;;;;;;;;5053614;28;20029;-76
2022/10/12 03:12:11;;;;;;;8.05;3.10;;;;;;;;;;5053957;28;20083;-76
2022/10/12 03:14:36;;;;;;;7.38;3.03;;;;;;;;;;5053381;28;20021;-76
2022/10/12 03:17:03;;;;;;;9.40;3.50;;;;;;;;;;5052012;28;20025;-76
2022/10/12 03:19:28;;;;;;;6.32;3.35;;;;;;;;;;5053466;28;20025;-76
2022/10/12 03:21:54;;;;;;;6.28;3.28;;;;;;;;;;5053338;28;20040;-76
2022/10/12 03:24:19;;;;;;;7.55;3.45;;;;;;;;;;5053386;28;20025;-76
2022/10/12 03:26:44;;;;;;;8.82;3.30;;;;;;;;;;5053489;28;20090;-76
2022/10/12 03:29:09;;;;;;;7.20;3.13;;;;;;;;;;5053242;28;20501;-76
2022/10/12 03:31:35;;;;;;;7.07;3.17;;;;;;;;;;5053428;28;20074;-76
2022/10/12 03:34:00;;;;;;;7.80;3.35;;;;;;;;;;5053215;28;20021;-76
2022/10/12 03:36:25;;;;;;;6.80;3.05;;;;;;;;;;5053080;28;20142;-76
2022/10/12 03:38:50;;;;;;;5.88;3.00;;;;;;;;;;5053542;28;20082;-77
2022/10/12 03:41:16;;;;;;;8.45;3.55;;;;;;;;;;5053201;28;20094;-76
2022/10/12 03:43:41;;;;;;;9.85;3.45;;;;;;;;;;5052924;28;20020;-75
2022/10/12 03:46:06;;;;;;;9.38;3.50;;;;;;;;;;5052878;28;20498;-76
2022/10/12 03:48:31;;;;;;;9.60;2.95;;;;;;;;;;5051537;28;20025;-76
2022/10/12 03:50:57;;;;;;;8.35;3.65;;;;;;;;;;5052815;28;20116;-76
2022/10/12 03:53:22;;;;;;;9.02;3.10;;;;;;;;;;5053026;28;20040;-77
2022/10/12 03:55:47;;;;;;;11.93;2.97;;;;;;;;;;5051593;28;20017;-77
2022/10/12 03:58:13;;;;;;;9.00;3.10;;;;;;;;;;5053388;28;20029;-77
2022/10/12 04:00:38;;;;;;;7.97;3.00;;;;;;;;;;5051312;28;20033;-77
2022/10/12 04:03:04;;;;;;;5.97;3.08;;;;;;;;;;5052748;28;20124;-77
2022/10/12 04:05:30;;;;;;;7.68;3.28;;;;;;;;;;5053044;28;20388;-77
2022/10/12 04:07:56;;;;;;;13.23;3.20;;;;;;;;;;5053034;28;20392;-76
2022/10/12 04:10:21;;;;;;;10.00;3.25;;;;;;;;;;5051438;28;20027;-77
2022/10/12 04:12:46;;;;;;;10.00;3.40;;;;;;;;;;5052531;28;20040;-76
2022/10/12 04:15:12;;;;;;;7.82;3.10;;;;;;;;;;5052541;28;20021;-75
2022/10/12 04:17:38;;;;;;;9.00;3.17;;;;;;;;;;5052543;28;20099;-76
2022/10/12 04:20:04;;;;;;;14.20;3.70;;;;;;;;;;5051455;28;20031;-77
2022/10/12 04:22:29;;;;;;;6.97;3.22;;;;;;;;;;5052519;28;20063;-77
2022/10/12 04:24:54;;;;;;;7.43;3.28;;;;;;;;;;5052619;28;20382;-77
2022/10/12 04:27:20;;;;;;;9.73;3.58;;;;;;;;;;5051599;28;20025;-77
2022/10/12 04:29:45;;;;;;;9.68;3.35;;;;;;;;;;5052776;28;20021;-76
2022/10/12 04:32:10;;;;;;;7.80;3.45;;;;;;;;;;5052457;28;20478;-76
2022/10/12 04:34:36;;;;;;;6.47;3.30;;;;;;;;;;5052475;28;20035;-76
2022/10/12 04:37:02;;;;;;;8.80;3.38;;;;;;;;;;5052592;28;20032;-77
2022/10/12 04:39:27;;;;;;;10.85;3.40;;;;;;;;;;5052568;28;20021;-77
2022/10/12 04:41:53;;;;;;;9.70;3.22;;;;;;;;;;5052395;28;20029;-77
2022/10/12 04:44:18;;;;;;;5.75;3.13;;;;;;;;;;5051066;28;20028;-77
2022/10/12 04:46:43;;;;;;;6.75;3.30;;;;;;;;;;5052234;28;20036;-76
2022/10/12 04:49:08;;;;;;;7.32;3.05;;;;;;;;;;5052339;28;20040;-76
2022/10/12 04:51:34;;;;;;;7.40;3.03;;;;;;;;;;5052545;28;20379;-76
2022/10/12 04:53:59;;;;;;;13.95;3.55;;;;;;;;;;5052445;28;20056;-76
2022/10/12 04:56:24;;;;;;;6.03;3.10;;;;;;;;;;5052544;28;20107;-77
2022/10/12 04:58:49;;;;;;;5.85;3.05;;;;;;;;;;5054763;28;20024;-76
2022/10/12 05:01:15;;;;;;;8.98;3.00;;;;;;;;;;5055788;28;20574;-77
2022/10/12 05:03:40;;;;;;;9.95;3.25;;;;;;;;;;5056202;28;20025;-77
2022/10/12 05:06:06;;;;;;;8.57;3.50;;;;;;;;;;5056564;28;20111;-77
2022/10/12 05:08:31;;;;;;;8.07;3.15;;;;;;;;;;5054480;28;20021;-76
2022/10/12 05:10:58;;;;;;;11.25;4.07;;;;;;;;;;5055837;28;20056;-76
2022/10/12 05:13:23;;;;;;;7.53;3.38;;;;;;;;;;5054663;28;20111;-76
2022/10/12 05:15:48;;;;;;;9.98;3.90;;;;;;;;;;5055997;28;20055;-77
2022/10/12 05:18:14;;;;;;;8.20;3.92;;;;;;;;;;5056225;28;20092;-77
2022/10/12 05:20:39;;;;;;;8.18;3.92;;;;;;;;;;5055971;28;20374;-76
2022/10/12 05:23:04;;;;;;;9.98;4.13;;;;;;;;;;5055698;28;20130;-77
2022/10/12 05:25:29;;;;;;;7.22;3.42;;;;;;;;;;5055618;28;20064;-77
2022/10/12 05:27:55;;;;;;;7.40;3.72;;;;;;;;;;5055761;28;20029;-77
2022/10/12 05:30:21;;;;;;;14.52;3.95;;;;;;;;;;5055583;28;20109;-76
2022/10/12 05:32:47;;;;;;;10.68;3.90;;;;;;;;;;5055428;28;20131;-76
2022/10/12 05:35:12;;;;;;;8.05;3.42;;;;;;;;;;5055711;28;20029;-77
2022/10/12 05:37:38;;;;;;;7.97;3.70;;;;;;;;;;5053932;28;20028;-76
2022/10/12 05:40:03;;;;;;;10.10;4.05;;;;;;;;;;5055567;28;20478;-76
2022/10/12 05:42:28;;;;;;;16.13;3.65;;;;;;;;;;5055254;28;20398;-77
2022/10/12 05:44:54;;;;;;;9.63;3.70;;;;;;;;;;5053791;28;20041;-77
2022/10/12 05:47:19;;;;;;;14.25;3.88;;;;;;;;;;5054904;28;20139;-76
2022/10/12 05:49:44;;;;;;;8.00;3.33;;;;;;;;;;5053929;28;20033;-76
2022/10/12 05:52:10;;;;;;;5.95;3.25;;;;;;;;;;5055161;28;20029;-76
2022/10/12 05:54:35;;;;;;;10.43;3.35;;;;;;;;;;5054943;28;20029;-77
2022/10/12 05:57:00;;;;;;;11.23;3.50;;;;;;;;;;5055289;28;20064;-76
2022/10/12 05:59:26;;;;;;;10.15;3.78;;;;;;;;;;5054854;28;20051;-76
2022/10/12 06:01:51;;;;;;;9.35;3.95;;;;;;;;;;5054941;28;20548;-76
2022/10/12 06:04:17;;;;;;;6.85;3.40;;;;;;;;;;5055323;28;20053;-77
2022/10/12 06:06:42;;;;;;;10.02;3.40;;;;;;;;;;5058311;28;20390;-77
2022/10/12 06:09:08;;;;;;;8.25;3.58;;;;;;;;;;5055751;28;20021;-77
2022/10/12 06:11:33;;;;;;;10.77;3.17;;;;;;;;;;5057257;28;20100;-77
2022/10/12 06:14:01;;;;;;;10.63;3.40;;;;;;;;;;5065278;28;20024;-79
2022/10/12 06:16:26;;;;;;;8.50;3.20;;;;;;;;;;5061970;28;20020;-77
2022/10/12 06:18:51;;;;;;;6.45;3.22;;;;;;;;;;5055599;28;20112;-77
2022/10/12 06:21:17;;;;;;;5.45;2.90;;;;;;;;;;5056002;28;20493;-77
2022/10/12 06:23:42;;;;;;;11.05;3.42;;;;;;;;;;5055028;28;20023;-76
2022/10/12 06:26:07;;;;;;;10.05;2.97;;;;;;;;;;5054530;28;20021;-76
2022/10/12 06:28:32;;;;;;;8.98;3.35;;;;;;;;;;5054782;28;20490;-75
2022/10/12 06:30:59;;;;;;;10.52;3.60;;;;;;;;;;5054215;28;20024;-75
2022/10/12 06:33:26;;;;;;;8.00;3.08;;;;;;;;;;5054314;28;20029;-75
2022/10/12 06:35:51;;;;;;;7.35;3.22;;;;;;;;;;5053011;28;20025;-75
2022/10/12 06:38:16;;;;;;;8.43;4.25;;;;;;;;;;5054267;28;20028;-76
2022/10/12 06:40:42;;;;;;;8.63;3.30;;;;;;;;;;5054445;28;20025;-77
2022/10/12 06:43:08;;;;;;;14.15;3.75;;;;;;;;;;5052812;28;20027;-77
2022/10/12 06:45:33;;;;;;;9.10;3.35;;;;;;;;;;5054540;28;20025;-76
2022/10/12 06:47:59;;;;;;;9.38;3.58;;;;;;;;;;5055102;28;20021;-74
2022/10/12 06:50:25;;;;;;;8.05;3.30;;;;;;;;;;5054018;28;20025;-74
2022/10/12 06:52:50;;;;;;;7.80;3.10;;;;;;;;;;5052583;28;20032;-73
2022/10/12 06:55:16;;;;;;;8.40;3.30;;;;;;;;;;5054229;28;20036;-77
2022/10/12 06:57:41;;;;;;;10.20;3.55;;;;;;;;;;5054012;28;20397;-77
2022/10/12 07:00:07;;;;;;;7.68;3.10;;;;;;;;;;5053542;28;20036;-76
2022/10/12 07:02:33;;;;;;;10.10;3.30;;;;;;;;;;5053645;28;20064;-76
2022/10/12 07:04:59;;;;;;;9.40;3.50;;;;;;;;;;5052634;28;20021;-77
2022/10/12 07:07:24;;;;;;;10.32;3.13;;;;;;;;;;5054297;28;20029;-76
2022/10/12 07:09:50;;;;;;;7.43;3.10;;;;;;;;;;5052747;28;20029;-77
2022/10/12 07:12:15;;;;;;;10.95;3.47;;;;;;;;;;5052840;28;20029;-76
2022/10/12 07:14:41;;;;;;;6.85;3.20;;;;;;;;;;5052968;28;20543;-76
2022/10/12 07:17:06;;;;;;;7.70;3.42;;;;;;;;;;5054761;28;20029;-77
2022/10/12 07:19:31;;;;;;;6.95;3.00;;;;;;;;;;5052911;28;20493;-76
2022/10/12 07:21:56;;;;;;;9.05;3.10;;;;;;;;;;5054261;28;20029;-77
2022/10/12 07:24:22;;;;;;;6.10;2.90;;;;;;;;;;5053839;28;20478;-77
2022/10/12 07:26:49;;;;;;;8.15;3.17;;;;;;;;;;5053626;28;20051;-76
2022/10/12 07:29:14;;;;;;;8.15;3.15;;;;;;;;;;5054167;28;20063;-77
2022/10/12 07:31:41;;;;;;;7.93;2.75;;;;;;;;;;5053985;28;20049;-76
2022/10/12 07:34:08;;;;;;;7.85;3.10;;;;;;;;;;5053911;28;20029;-76
2022/10/12 07:36:33;;;;;;;8.50;3.10;;;;;;;;;;5053517;28;20025;-76
2022/10/12 07:38:59;;;;;;;5.65;2.53;;;;;;;;;;5053649;28;20024;-75
2022/10/12 07:41:24;;;;;;;7.07;2.75;;;;;;;;;;5052024;28;20086;-76
2022/10/12 07:43:54;;;;;;;5.82;2.72;;;;;;;;;;5052101;28;20037;-76
2022/10/12 07:46:19;;;;;;;9.85;3.10;;;;;;;;;;5053426;28;20103;-76
2022/10/12 07:48:45;;;;;;;8.00;3.15;;;;;;;;;;5053386;28;20124;-76
2022/10/12 07:51:10;;;;;;;8.55;2.83;;;;;;;;;;5052096;28;20025;-77
2022/10/12 07:53:37;;;;;;;7.78;3.22;;;;;;;;;;5051872;28;20029;-76
2022/10/12 07:56:05;;;;;;;8.63;3.00;;;;;;;;;;5053237;28;20482;-75
2022/10/12 07:58:31;;;;;;;5.95;3.00;;;;;;;;;;5053097;28;20024;-77
2022/10/12 08:01:04;;;;;;;10.73;2.90;;;;;;;;;;5053062;28;20033;-76
2022/10/12 08:03:29;;;;;;;8.55;3.00;;;;;;;;;;5052204;28;20025;-77
2022/10/12 08:05:54;;;;;;;8.23;2.83;;;;;;;;;;5053165;28;20071;-76
2022/10/12 08:08:19;;;;;;;7.68;3.00;;;;;;;;;;5053009;28;20029;-76
2022/10/12 08:10:45;;;;;;;11.10;2.75;;;;;;;;;;5052970;28;20021;-76
2022/10/12 08:13:10;;;;;;;7.03;2.90;;;;;;;;;;5052540;28;20029;-76
2022/10/12 08:15:35;;;;;;;11.45;2.88;;;;;;;;;;5051694;28;20394;-77
2022/10/12 08:18:00;;;;;;;7.93;3.20;;;;;;;;;;5053215;28;20032;-76
2022/10/12 08:20:26;;;;;;;7.30;3.28;;;;;;;;;;5052928;28;20466;-76
2022/10/12 08:22:52;;;;;;;10.57;3.10;;;;;;;;;;5052630;28;20021;-76
2022/10/12 08:25:28;;;;;;;14.45;3.20;;;;;;;;;;5051216;28;20033;-76
2022/10/12 08:27:53;;;;;;;9.20;3.10;;;;;;;;;;5052687;28;20035;-76
2022/10/12 08:30:19;;;;;;;10.95;2.83;;;;;;;;;;5051575;28;20468;-77
2022/10/12 08:32:44;;;;;;;11.35;3.70;;;;;;;;;;5054950;28;20029;-77
2022/10/12 08:35:09;;;;;;;9.45;3.50;;;;;;;;;;5057194;28;20021;-77
2022/10/12 08:37:34;;;;;;;11.18;3.35;;;;;;;;;;5057199;28;20013;-76
2022/10/12 08:40:00;;;;;;;9.02;3.17;;;;;;;;;;5056916;28;20047;-77
2022/10/12 08:42:34;;;;;;;10.25;3.38;;;;;;;;;;5055400;28;20043;-76
2022/10/12 08:45:26;;;;;;;6.25;3.22;;;;;;;;;;5056778;28;20025;-78
2022/10/12 08:47:57;;;;;;;9.32;3.00;;;;;;;;;;5057011;28;20104;-76
2022/10/12 08:50:31;;;;;;;8.68;3.10;;;;;;;;;;5055412;28;20032;-76
2022/10/12 08:53:18;;;;;;;7.28;2.97;;;;;;;;;;5055456;28;20035;-77
2022/10/12 08:55:45;;;;;;;10.73;3.22;;;;;;;;;;5056626;28;20104;-78
2022/10/12 08:58:26;;;;;;;8.43;3.13;;;;;;;;;;5055317;28;20523;-76
2022/10/12 09:01:00;;;;;;;9.88;3.13;;;;;;;;;;5056304;28;20036;-77
2022/10/12 09:03:44;;;;;;;10.88;2.90;;;;;;;;;;5056404;28;20052;-76
2022/10/12 09:06:15;;;;;;;6.47;2.72;;;;;;;;;;5055410;28;20025;-77
2022/10/12 09:08:48;;;;;;;8.90;3.17;;;;;;;;;;5056474;28;20029;-77
2022/10/12 09:11:29;;;;;;;10.80;4.10;;;;;;;;;;5056286;28;20510;-76
2022/10/12 09:14:17;;;;;;;13.80;3.03;;;;;;;;;;5055016;28;20040;-77
2022/10/12 09:16:46;;;;;;;12.32;3.35;;;;;;;;;;5056527;28;20067;-76
2022/10/12 09:19:25;;;;;;;9.18;3.20;;;;;;;;;;5056391;28;20551;-77
2022/10/12 09:21:51;;;;;;;9.25;3.15;;;;;;;;;;5054842;28;20079;-77
2022/10/12 09:24:24;;;;;;;8.95;2.88;;;;;;;;;;5056054;28;20025;-77
2022/10/12 09:26:52;;;;;;;17.20;3.08;;;;;;;;;;5056162;28;20143;-77
2022/10/12 09:29:28;;;;;;;9.93;2.60;;;;;;;;;;5055925;28;20032;-77
2022/10/12 09:32:02;;;;;;;12.63;2.90;;;;;;;;;;5054595;28;20087;-77
2022/10/12 09:34:28;;;;;;;10.35;2.60;;;;;;;;;;5054639;28;20035;-77
2022/10/12 09:36:54;;;;;;;7.07;2.72;;;;;;;;;;5055878;28;20025;-77
2022/10/12 09:39:27;;;;;;;10.20;2.85;;;;;;;;;;5055749;28;20021;-77
2022/10/12 09:41:52;;;;;;;9.13;2.42;;;;;;;;;;5054329;28;20025;-77
2022/10/12 09:44:40;;;;;;;9.25;2.72;;;;;;;;;;5054123;28;20025;-77
2022/10/12 09:47:23;;;;;;;12.05;2.80;;;;;;;;;;5056001;28;20025;-77
2022/10/12 09:49:50;;;;;;;6.95;2.28;;;;;;;;;;5054435;28;20028;-76
2022/10/12 09:52:19;;;;;;;6.72;2.10;;;;;;;;;;5055409;28;20437;-76
2022/10/12 09:54:47;;;;;;;9.55;2.60;;;;;;;;;;5055503;28;20035;-76
2022/10/12 09:57:26;;;;;;;10.57;3.20;;;;;;;;;;5055431;28;20115;-77
2022/10/12 09:59:53;;;;;;;8.52;2.92;;;;;;;;;;5055300;28;20029;-77
2022/10/12 10:02:20;;;;;;;8.13;2.60;;;;;;;;;;5055153;28;20029;-76
2022/10/12 10:04:47;;;;;;;8.70;2.20;;;;;;;;;;5055600;28;20033;-76
2022/10/12 10:07:32;;;;;;;7.68;1.80;;;;;;;;;;5055150;28;20025;-76
2022/10/12 10:10:09;;;;;;;8.00;2.03;;;;;;;;;;5055315;28;20075;-76
2022/10/12 10:12:42;;;;;;;10.65;2.15;;;;;;;;;;5055369;28;20117;-77
2022/10/12 10:15:22;;;;;;;5.85;2.15;;;;;;;;;;5055356;28;20149;-76
2022/10/12 10:17:52;;;;;;;10.30;1.98;;;;;;;;;;5055360;28;20063;-77
2022/10/12 10:20:41;;;;;;;7.50;2.17;;;;;;;;;;5053827;28;20024;-77
2022/10/12 10:23:06;;;;;;;6.72;2.20;;;;;;;;;;5055081;28;20390;-77
2022/10/12 10:25:33;;;;;;;8.95;2.38;;;;;;;;;;5055160;28;20020;-76
2022/10/12 10:28:26;;;;;;;7.03;1.73;;;;;;;;;;5055073;28;20419;-77
2022/10/12 10:31:01;;;;;;;6.30;1.90;;;;;;;;;;5054757;28;20037;-77
2022/10/12 10:33:28;;;;;;;5.95;1.65;;;;;;;;;;5054305;28;20021;-77
2022/10/12 10:36:18;;;;;;;5.10;1.90;;;;;;;;;;5054946;28;20036;-77
2022/10/12 10:39:04;;;;;;;6.25;2.25;;;;;;;;;;5055438;28;20486;-76
2022/10/12 10:41:36;;;;;;;3.65;1.80;;;;;;;;;;5053605;28;20021;-76
2022/10/12 10:44:05;;;;;;;14.15;2.40;;;;;;;;;;5054551;28;20433;-76
2022/10/12 10:46:34;;;;;;;10.32;2.22;;;;;;;;;;5054491;28;20028;-76
2022/10/12 10:49:05;;;;;;;13.38;1.88;;;;;;;;;;5053093;28;20025;-77
2022/10/12 10:51:52;;;;;;;6.57;2.03;;;;;;;;;;5054361;28;20397;-77
2022/10/12 10:54:21;;;;;;;5.60;1.90;;;;;;;;;;5052570;28;20025;-77
2022/10/12 10:56:49;;;;;;;5.93;1.80;;;;;;;;;;5054049;28;20029;-77
2022/10/12 10:59:26;;;;;;;9.77;2.47;;;;;;;;;;5054144;28;20057;-77
2022/10/12 11:01:56;;;;;;;7.55;2.20;;;;;;;;;;5054189;28;20033;-77
2022/10/12 11:04:30;;;;;;;6.88;1.70;;;;;;;;;;5054355;28;20025;-77
2022/10/12 11:06:58;;;;;;;;;;;;;;;;;;5054927;28;20017;-77
2022/10/12 11:09:30;;;;;;;6.40;1.83;;;;;;;;;;5054280;28;19908;-77
2022/10/12 11:12:03;;;;;;;5.90;1.77;;;;;;;;;;5054069;28;20070;-77
2022/10/12 11:14:35;;;;;;;7.90;2.17;;;;;;;;;;5054537;28;20033;-77
2022/10/12 11:17:17;;;;;;;6.13;2.30;;;;;;;;;;5054019;28;20541;-76
2022/10/12 11:19:54;;;;;;;5.03;1.70;;;;;;;;;;5054265;28;20040;-76
2022/10/12 11:22:49;;;;;;;7.65;2.13;;;;;;;;;;5054095;28;20039;-76
2022/10/12 11:25:28;;;;;;;3.88;1.83;;;;;;;;;;5054129;28;20107;-77
2022/10/12 11:27:54;;;;;;;6.72;1.90;;;;;;;;;;5052432;28;20047;-77
2022/10/12 11:30:22;;;;;;;7.40;2.08;;;;;;;;;;5053756;28;20021;-76
2022/10/12 11:33:01;;;;;;;6.10;1.80;;;;;;;;;;5053942;28;20021;-76
2022/10/12 11:35:36;;;;;;;7.80;2.30;;;;;;;;;;5053916;28;20060;-78
2022/10/12 11:38:23;;;;;;;5.93;2.20;;;;;;;;;;5053728;28;20028;-77
2022/10/12 11:41:06;;;;;;;4.68;1.90;;;;;;;;;;5052201;28;20024;-77
2022/10/12 11:43:39;;;;;;;8.23;1.95;;;;;;;;;;5053978;28;20029;-78
2022/10/12 11:46:09;;;;;;;7.35;2.55;;;;;;;;;;5054134;28;20397;-77
2022/10/12 11:48:42;;;;;;;14.15;2.63;;;;;;;;;;5054190;28;20041;-77
2022/10/12 11:51:07;;;;;;;7.50;1.63;;;;;;;;;;5053734;28;20050;-78
2022/10/12 11:53:54;;;;;;;5.18;1.80;;;;;;;;;;5055210;28;20432;-77
2022/10/12 11:56:22;;;;;;;6.88;2.30;;;;;;;;;;5053556;28;20035;-76
2022/10/12 11:58:51;;;;;;;7.40;1.95;;;;;;;;;;5053283;28;20398;-76
2022/10/12 12:01:28;;;;;;;5.93;2.17;;;;;;;;;;5053553;28;20033;-76
2022/10/12 12:04:13;;;;;;;7.25;2.38;;;;;;;;;;5052874;28;20048;-76
2022/10/12 12:06:47;;;;;;;8.85;1.90;;;;;;;;;;5052434;28;20025;-76
2022/10/12 12:09:36;;;;;;;9.68;2.60;;;;;;;;;;5053039;28;20482;-77
2022/10/12 12:12:18;;;;;;;13.15;2.30;;;;;;;;;;5053566;28;20048;-77
2022/10/12 12:15:05;;;;;;;8.30;2.10;;;;;;;;;;5051661;28;20074;-77
2022/10/12 12:17:31;;;;;;;6.15;1.70;;;;;;;;;;5053389;28;20067;-75
2022/10/12 12:19:59;;;;;;;9.48;2.08;;;;;;;;;;5051800;28;20032;-76
2022/10/12 12:22:50;;;;;;;4.85;1.90;;;;;;;;;;5052787;28;20074;-77
2022/10/12 12:25:25;;;;;;;6.35;2.00;;;;;;;;;;5052985;28;20037;-76
2022/10/12 12:28:19;;;;;;;5.38;1.80;;;;;;;;;;5052836;28;20036;-77
2022/10/12 12:31:06;;;;;;;5.50;1.92;;;;;;;;;;5052883;28;20107;-76
2022/10/12 12:33:34;;;;;;;5.32;1.60;;;;;;;;;;5053171;28;20035;-77
2022/10/12 12:36:09;;;;;;;7.82;2.08;;;;;;;;;;5053094;28;20029;-77
2022/10/12 12:38:37;;;;;;;5.38;1.85;;;;;;;;;;5052716;28;20021;-77
2022/10/12 12:41:08;;;;;;;7.38;2.08;;;;;;;;;;5052655;28;20082;-77
2022/10/12 12:43:37;;;;;;;6.28;1.95;;;;;;;;;;5051675;28;20029;-76
2022/10/12 12:46:04;;;;;;;8.20;2.55;;;;;;;;;;5052693;28;20029;-77
2022/10/12 12:48:41;;;;;;;10.27;2.28;;;;;;;;;;5052713;28;20393;-77
2022/10/12 12:51:09;;;;;;;15.50;3.22;;;;;;;;;;5052721;28;20035;-75
2022/10/12 12:53:37;;;;;;;6.40;2.05;;;;;;;;;;5051426;28;20482;-77
2022/10/12 12:56:40;;;;;;;5.53;2.22;;;;;;;;;;5053052;28;20032;-77
2022/10/12 12:59:21;;;;;;;4.97;2.30;;;;;;;;;;5051543;28;20075;-75
2022/10/12 13:02:22;;;;;;;7.22;1.98;;;;;;;;;;5052620;28;20029;-76
2022/10/12 13:05:24;;;;;;;7.95;2.03;;;;;;;;;;4999170;28;20040;-76
2022/10/12 13:08:13;;;;;;;6.45;2.10;;;;;;;;;;5051246;28;20061;-77
2022/10/12 13:11:00;;;;;;;6.75;2.30;;;;;;;;;;5052905;28;20033;-76
2022/10/12 13:13:39;;;;;;;6.05;1.95;;;;;;;;;;5052843;28;20017;-77
2022/10/12 13:16:24;;;;;;;6.50;2.05;;;;;;;;;;5051192;28;20055;-77
2022/10/12 13:18:58;;;;;;;11.30;2.28;;;;;;;;;;5054745;28;20415;-77
2022/10/12 13:21:27;;;;;;;5.85;1.95;;;;;;;;;;5056518;28;20112;-77
2022/10/12 13:24:21;;;;;;;6.65;2.28;;;;;;;;;;5056970;28;20425;-77
2022/10/12 13:26:49;;;;;;;5.80;2.05;;;;;;;;;;5049977;28;20494;-75
2022/10/12 13:29:51;;;;;;;7.43;2.03;;;;;;;;;;5055926;28;20482;-75
2022/10/12 13:32:40;;;;;;;12.20;1.95;;;;;;;;;;5054558;28;20032;-76
2022/10/12 13:35:38;;;;;;;4.97;1.98;;;;;;;;;;5056062;28;20028;-76
2022/10/12 13:38:12;;;;;;;7.38;2.22;;;;;;;;;;5052782;28;20447;-76
2022/10/12 13:40:40;;;;;;;8.82;2.30;;;;;;;;;;5055631;28;20033;-76
2022/10/12 13:43:27;;;;;;;9.77;2.40;;;;;;;;;;5055923;28;20025;-76
2022/10/12 13:45:52;;;;;;;4.70;1.80;;;;;;;;;;5054318;28;20021;-76
2022/10/12 13:48:20;;;;;;;3.90;1.88;;;;;;;;;;5054244;28;20047;-77
2022/10/12 13:50:58;;;;;;;7.93;1.90;;;;;;;;;;5055359;28;20647;-77
2022/10/12 13:53:25;;;;;;;9.68;1.98;;;;;;;;;;5056418;28;20029;-77
2022/10/12 13:55:56;;;;;;;8.32;2.08;;;;;;;;;;5055327;28;20028;-77
2022/10/12 13:58:32;;;;;;;6.63;2.00;;;;;;;;;;5054032;28;20032;-77
2022/10/12 14:00:58;;;;;;;6.57;2.15;;;;;;;;;;5055403;28;20020;-76
2022/10/12 14:03:26;;;;;;;7.90;2.15;;;;;;;;;;5055204;28;20094;-76
2022/10/12 14:05:52;;;;;;;12.73;3.05;;;;;;;;;;5055350;28;20028;-76
2022/10/12 14:08:26;;;;;;;5.68;2.30;;;;;;;;;;5053865;28;20021;-76
2022/10/12 14:10:53;;;;;;;8.10;2.30;;;;;;;;;;5053695;28;20029;-76
2022/10/12 14:13:25;;;;;;;13.10;2.40;;;;;;;;;;5055097;28;20029;-77
2022/10/12 14:15:51;;;;;;;8.38;2.30;;;;;;;;;;5055068;28;20486;-78
2022/10/12 14:18:31;;;;;;;7.53;2.53;;;;;;;;;;5054587;28;20029;-76
2022/10/12 14:21:13;;;;;;;7.18;2.28;;;;;;;;;;5054941;28;20072;-76
2022/10/12 14:23:48;;;;;;;5.13;2.30;;;;;;;;;;5053793;28;20063;-75
2022/10/12 14:26:38;;;;;;;6.13;2.45;;;;;;;;;;5053533;28;20040;-76
2022/10/12 14:29:43;;;;;;;10.88;2.50;;;;;;;;;;5054326;28;20031;-76
2022/10/12 14:32:11;;;;;;;5.13;2.30;;;;;;;;;;5041607;28;20033;-77
2022/10/12 14:34:46;;;;;;;6.82;2.50;;;;;;;;;;5054744;28;20032;-76
2022/10/12 14:37:14;;;;;;;6.00;2.28;;;;;;;;;;5054914;28;20027;-77
2022/10/12 14:39:44;;;;;;;7.25;2.35;;;;;;;;;;5053478;28;20024;-76
2022/10/12 14:42:18;;;;;;;13.57;3.00;;;;;;;;;;5054524;28;20017;-77
2022/10/12 14:44:43;;;;;;;;;;;;;;;;;;5055270;28;20025;-76
2022/10/12 14:47:31;;;;;;;8.17;2.30;;;;;;;;;;5053340;28;19913;-76
2022/10/12 14:49:58;;;;;;;10.43;2.90;;;;;;;;;;5053556;28;20679;-76
2022/10/12 14:52:33;;;;;;;5.30;2.45;;;;;;;;;;5054524;28;20386;-77
2022/10/12 14:54:58;;;;;;;7.32;2.80;;;;;;;;;;5053238;28;20025;-78
2022/10/12 14:57:27;;;;;;;7.45;2.40;;;;;;;;;;5054154;28;20025;-77
2022/10/12 14:59:53;;;;;;;5.70;2.28;;;;;;;;;;5052802;28;20036;-76
2022/10/12 15:02:23;;;;;;;8.10;2.50;;;;;;;;;;5053959;28;20074;-76